Home > Products > Valid Products > TAF

000
FTUS42 KCAE 301400 AAA
TAFCUB
TAF AMD
KCUB 301408Z 3014/3112 03006KT P6SM SKC
     FM302300 00000KT P6SM SKC=



000
FTUS42 KCAE 301400 AAA
TAFOGB
TAF AMD
KOGB 301408Z 3014/3112 03010KT P6SM SCT020 SCT045
     FM302300 02004KT P6SM SKC=



000
FTUS42 KCAE 301400 AAB
TAFDNL
TAF AMD
KDNL 301408Z 3014/3112 02008KT P6SM SCT035
     FM302300 01004KT P6SM SKC=



000
FTUS42 KCAE 301400 AAA
TAFCAE
TAF AMD
KCAE 301408Z 3014/3112 02008KT P6SM SKC
     FM302300 VRB03KT P6SM SKC=



000
FTUS42 KCAE 301400 AAB
TAFAGS
TAF AMD
KAGS 301408Z 3014/3112 02008KT P6SM SCT040
     FM302300 00000KT P6SM SKC=



000
FTUS42 KCAE 301200 AAA
TAFDNL
TAF AMD
KDNL 301227Z 3012/3112 35008KT P6SM SCT035
      TEMPO 3012/3014 BKN035
     FM301400 02008KT P6SM SCT035
     FM302300 01004KT P6SM SKC=



000
FTUS42 KCAE 301200 AAA
TAFAGS
TAF AMD
KAGS 301226Z 3012/3112 35008KT P6SM BKN035
     FM301500 02008KT P6SM SCT040
     FM302300 00000KT P6SM SKC=



000
FTUS42 KCAE 301100
TAFCUB
TAF
KCUB 301120Z 3012/3112 03006KT P6SM SKC
     FM302300 00000KT P6SM SKC=



000
FTUS42 KCAE 301100
TAFDNL
TAF
KDNL 301120Z 3012/3112 35008KT P6SM SKC
     FM301400 02008KT P6SM SKC
     FM302300 01004KT P6SM SKC=



000
FTUS42 KCAE 301100
TAFOGB
TAF
KOGB 301120Z 3012/3112 03008KT P6SM SCT020 SCT050
     FM301400 02010KT P6SM SKC
     FM302300 02004KT P6SM SKC=



000
FTUS42 KCAE 301100
TAFCAE
TAF
KCAE 301120Z 3012/3112 02008KT P6SM SKC
     FM302300 VRB03KT P6SM SKC=



000
FTUS42 KCAE 301100
TAFAGS
TAF
KAGS 301120Z 3012/3112 35008KT P6SM SKC
     FM301400 02008KT P6SM SKC
     FM302300 00000KT P6SM SKC=



000
FTUS42 KCAE 300800 AAA
TAFCUB
TAF AMD
KCUB 300842Z 3009/3106 02006KT P6SM SCT025 BKN050
     FM301300 03006KT P6SM SKC
     FM302300 00000KT P6SM SKC=



000
FTUS42 KCAE 300800 AAA
TAFCAE
TAF AMD
KCAE 300842Z 3009/3106 03008KT P6SM SCT025 BKN050
     FM301300 03008KT P6SM SKC
     FM302300 VRB03KT P6SM SKC=



000
FTUS42 KCAE 300800 AAA
TAFAGS
TAF AMD
KAGS 300842Z 3009/3106 34006KT P6SM SCT040
     FM301300 02008KT P6SM SKC
     FM302300 00000KT P6SM SKC=



000
FTUS42 KCAE 300800 AAB
TAFOGB
TAF AMD
KOGB 300842Z 3009/3106 03010KT P6SM SCT020 OVC045
     FM301400 02010KT P6SM SKC
     FM302300 02004KT P6SM SKC=



000
FTUS42 KCAE 300800 AAA
TAFDNL
TAF AMD
KDNL 300842Z 3009/3106 34008KT P6SM SCT040
     FM301300 02008KT P6SM SKC
     FM302300 01004KT P6SM SKC=



000
FTUS42 KCAE 300800 AAA
TAFOGB
TAF AMD
KOGB 300817Z 3008/3106 02010KT P6SM BKN015 BKN035 OVC045
     FM300900 02010KT P6SM SCT035 BKN045
     FM301400 02010KT P6SM SKC
     FM302300 02004KT P6SM SKC=



000
FTUS42 KCAE 300500 CCA
TAFOGB
TAF COR
KOGB 300549Z 3006/3106 VRB04KT P6SM VCTS SCT035CB OVC050
      TEMPO 3006/3007 3SM -SHRA BKN035
     FM300800 34005KT P6SM OVC050
     FM301400 02010KT P6SM SKC
     FM302300 02004KT P6SM SKC=



000
FTUS42 KCAE 300500
TAFOGB
TAF
KOGB 300529Z 3006/3106 VRB04KT P6SM VCSH SCT035 OVC050
      TEMPO 3006/3007 5SM -SHRA BKN035
     FM300800 34005KT P6SM OVC050
     FM301400 02010KT P6SM SKC
     FM302300 02004KT P6SM SKC=



000
FTUS42 KCAE 300500
TAFCAE
TAF
KCAE 300529Z 3006/3106 01006KT P6SM SCT040 BKN050
     FM301400 03008KT P6SM SKC
     FM302300 VRB03KT P6SM SKC=



000
FTUS42 KCAE 300500
TAFAGS
TAF
KAGS 300529Z 3006/3106 32006KT P6SM FEW045 SCT070
     FM301100 36006KT P6SM BKN040
     FM301300 02008KT P6SM SKC
     FM302300 00000KT P6SM SKC=



000
FTUS42 KCAE 300500
TAFDNL
TAF
KDNL 300529Z 3006/3106 30006KT P6SM FEW045 SCT070
     FM301100 36006KT P6SM BKN040
     FM301300 02008KT P6SM SKC
     FM302300 01004KT P6SM SKC=



000
FTUS42 KCAE 300500
TAFCUB
TAF
KCUB 300529Z 3006/3106 01005KT P6SM SCT040 BKN050
     FM301500 03006KT P6SM SKC
     FM302300 00000KT P6SM SKC=



000
FTUS42 KCAE 300400 AAB
TAFCUB
TAF AMD
KCUB 300437Z 3005/3024 30005KT P6SM BKN045 OVC060
     FM300700 01005KT P6SM BKN050
     FM301300 02008KT P6SM SKC=



000
FTUS42 KCAE 300400 AAB
TAFCAE
TAF AMD
KCAE 300432Z 3005/3024 30008KT P6SM BKN045 OVC060
     FM300700 01008KT P6SM VCSH BKN050
     FM301300 02010KT P6SM SKC=



000
FTUS42 KCAE 300200 AAA
TAFAGS
TAF AMD
KAGS 300201Z 3002/3024 28004KT P6SM VCSH BKN050
     FM300500 01008KT P6SM VCSH BKN040
     FM301300 02010KT P6SM SKC=



000
FTUS42 KCAE 300200 AAA
TAFCUB
TAF AMD
KCUB 300201Z 3002/3024 26004KT P6SM VCSH BKN050
     FM300500 01007KT P6SM VCSH BKN040
     FM301300 02008KT P6SM SKC=



000
FTUS42 KCAE 300200 AAA
TAFCAE
TAF AMD
KCAE 300201Z 3002/3024 26005KT P6SM VCSH BKN050
     FM300500 01008KT P6SM VCSH BKN040
     FM301300 02010KT P6SM SKC=



000
FTUS42 KCAE 300200 AAA
TAFDNL
TAF AMD
KDNL 300201Z 3002/3024 28005KT P6SM VCSH BKN050
     FM300500 01008KT P6SM VCSH BKN040
     FM301300 02010KT P6SM SKC=



000
FTUS42 KCAE 300200 AAA
TAFOGB
TAF AMD
KOGB 300201Z 3002/3024 26004KT P6SM VCSH BKN050
     FM300600 01008KT P6SM VCSH BKN040
     FM301300 02010KT P6SM SKC=



000
FTUS42 KCAE 292300
TAFCUB
TAF
KCUB 292324Z 3000/3024 25004KT P6SM VCSH BKN050
     FM300300 01007KT P6SM VCSH BKN040
     FM301300 02008KT P6SM SKC=



000
FTUS42 KCAE 292300
TAFDNL
TAF
KDNL 292324Z 3000/3024 27005KT P6SM VCSH BKN050
     FM300400 01008KT P6SM VCSH BKN040
     FM301300 02010KT P6SM SKC=



000
FTUS42 KCAE 292300
TAFOGB
TAF
KOGB 292324Z 3000/3024 23006KT P6SM VCSH BKN050
     FM300400 01008KT P6SM VCSH BKN040
     FM301300 02010KT P6SM SKC=



000
FTUS42 KCAE 292300
TAFAGS
TAF
KAGS 292324Z 3000/3024 27004KT P6SM VCSH BKN050
     FM300400 01008KT P6SM VCSH BKN040
     FM301300 02010KT P6SM SKC=



000
FTUS42 KCAE 292300
TAFCAE
TAF
KCAE 292324Z 3000/3024 25005KT P6SM VCSH BKN050
     FM300300 01008KT P6SM VCSH BKN040
     FM301300 02010KT P6SM SKC=



000
FTUS42 KCAE 292100 AAC
TAFAGS
TAF AMD
KAGS 292154Z 2922/3018 25006KT P6SM VCTS BKN050CB
      TEMPO 2922/2923 3SM SHRA OVC035
     FM300000 27005KT P6SM VCSH BKN050
     FM300500 36008KT P6SM BKN040
     FM301400 02007KT P6SM SKC=



000
FTUS42 KCAE 292100 AAA
TAFDNL
TAF AMD
KDNL 292116Z 2921/3018 23009KT P6SM VCSH BKN050
     FM300400 36008KT P6SM BKN040
     FM301400 02007KT P6SM SKC=



000
FTUS42 KCAE 292100 AAA
TAFCAE
TAF AMD
KCAE 292116Z 2921/3018 23007KT P6SM VCSH BKN050
     FM300300 36008KT P6SM BKN040
     FM301400 02007KT P6SM SKC=



000
FTUS42 KCAE 292100 AAB
TAFAGS
TAF AMD
KAGS 292116Z 2921/3018 25006KT P6SM VCSH BKN050
     FM300500 36008KT P6SM BKN040
     FM301400 02007KT P6SM SKC=



000
FTUS42 KCAE 292100 AAA
TAFCUB
TAF AMD
KCUB 292116Z 2921/3018 23006KT P6SM VCSH BKN050
     FM300300 36007KT P6SM BKN040
     FM301400 02007KT P6SM SKC=



000
FTUS42 KCAE 292100 AAA
TAFOGB
TAF AMD
KOGB 292116Z 2921/3018 23010KT P6SM VCSH BKN050
     FM300500 36008KT P6SM BKN040
     FM301400 02007KT P6SM SKC=



000
FTUS42 KCAE 291800 AAA
TAFAGS
TAF AMD
KAGS 291803Z 2918/3018 24010KT P6SM VCSH SCT050 BKN100
      TEMPO 2918/2919 5SM -SHRA BKN040
     FM292300 28006KT P6SM VCSH BKN035 OVC100
     FM300400 33005KT P6SM BKN040
     FM301400 02007KT P6SM SKC=



000
FTUS42 KCAE 291700
TAFCUB
TAF
KCUB 291738Z 2918/3018 25009KT P6SM SCT050
     FM292100 27008KT P6SM VCSH BKN035 BKN100
     FM300400 35005KT P6SM BKN040
     FM301400 02007KT P6SM SKC=



000
FTUS42 KCAE 291700
TAFDNL
TAF
KDNL 291738Z 2918/3018 24010KT P6SM VCSH SCT050 BKN100
     FM292300 28006KT P6SM VCSH BKN035 OVC100
     FM300400 33005KT P6SM BKN040
     FM301400 02007KT P6SM SKC=



000
FTUS42 KCAE 291700
TAFAGS
TAF
KAGS 291738Z 2918/3018 24010KT P6SM VCSH SCT050 BKN100
     FM292300 28006KT P6SM VCSH BKN035 OVC100
     FM300400 33005KT P6SM BKN040
     FM301400 02007KT P6SM SKC=



000
FTUS42 KCAE 291700
TAFCAE
TAF
KCAE 291738Z 2918/3018 25010KT P6SM SCT050
     FM292100 27008KT P6SM VCSH BKN035 BKN100
     FM300400 35005KT P6SM BKN040
     FM301400 02007KT P6SM SKC=



000
FTUS42 KCAE 291700
TAFOGB
TAF
KOGB 291738Z 2918/3018 24009KT P6SM SCT050
     FM292100 26008KT P6SM VCSH BKN035 BKN100
     FM300600 32005KT P6SM BKN040
     FM301400 02007KT P6SM SKC=



000
FTUS42 KCAE 291400 AAA
TAFAGS
TAF AMD
KAGS 291445Z 2915/3012 24009KT P6SM SCT040 BKN200
     FM292100 25012KT P6SM VCSH BKN035
     FM300400 33006KT P6SM BKN100=



000
FTUS42 KCAE 291400 AAA
TAFOGB
TAF AMD
KOGB 291445Z 2915/3012 24009KT P6SM SCT040 BKN200
     FM292100 25012KT P6SM VCSH BKN035
     FM300400 33006KT P6SM BKN100=



000
FTUS42 KCAE 291400 AAA
TAFCAE
TAF AMD
KCAE 291445Z 2915/3012 24009KT P6SM SCT040 BKN200
     FM292100 25012KT P6SM VCSH BKN035
     FM300400 33006KT P6SM BKN100=



000
FTUS42 KCAE 291400 AAA
TAFDNL
TAF AMD
KDNL 291445Z 2915/3012 24009KT P6SM SCT040 BKN200
     FM292100 25012KT P6SM VCSH BKN035
     FM300400 33006KT P6SM BKN100=



000
FTUS42 KCAE 291400 AAA
TAFCUB
TAF AMD
KCUB 291445Z 2915/3012 24007KT P6SM SCT040 BKN200
     FM292100 25010KT P6SM VCSH BKN035
     FM300400 33006KT P6SM BKN100=



000
FTUS42 KCAE 291100
TAFCAE
TAF
KCAE 291128Z 2912/3012 23004KT P6SM SCT070 BKN250
     FM291400 24009KT P6SM SCT040 BKN200
     FM292100 25012KT P6SM VCSH BKN035
     FM300400 33006KT P6SM BKN100=



000
FTUS42 KCAE 291100
TAFOGB
TAF
KOGB 291128Z 2912/3012 VRB03KT P6SM SCT100 BKN250
      TEMPO 2912/2913 5SM BR
     FM291400 24009KT P6SM SCT040 BKN200
     FM292100 25012KT P6SM VCSH BKN035
     FM300400 33006KT P6SM BKN100=



000
FTUS42 KCAE 291100
TAFAGS
TAF
KAGS 291128Z 2912/3012 VRB03KT P6SM SCT060 BKN250
      TEMPO 2912/2913 5SM BR
     FM291400 24009KT P6SM SCT040 BKN200
     FM292100 25012KT P6SM VCSH BKN035
     FM300400 33006KT P6SM BKN100=



000
FTUS42 KCAE 291100
TAFCUB
TAF
KCUB 291128Z 2912/3012 VRB03KT P6SM SCT070 BKN250
     FM291400 24007KT P6SM SCT040 BKN200
     FM292100 25010KT P6SM VCSH BKN035
     FM300400 33006KT P6SM BKN100=



000
FTUS42 KCAE 291100
TAFDNL
TAF
KDNL 291128Z 2912/3012 23004KT P6SM SCT060 BKN250
     FM291400 24009KT P6SM SCT040 BKN200
     FM292100 25012KT P6SM VCSH BKN035
     FM300400 33006KT P6SM BKN100=



000
FTUS42 KCAE 290800 AAB
TAFOGB
TAF AMD
KOGB 290831Z 2909/3006 VRB03KT P6SM SCT100 BKN250
      TEMPO 2910/2912 4SM BR
     FM291400 24009KT P6SM SCT040 BKN200
     FM292100 25012KT P6SM VCSH BKN035
     FM300400 33006KT P6SM BKN100=



000
FTUS42 KCAE 290800 AAA
TAFCUB
TAF AMD
KCUB 290831Z 2909/3006 VRB03KT P6SM SCT070 BKN250
     FM291400 24007KT P6SM SCT040 BKN200
     FM292100 25010KT P6SM VCSH BKN035
     FM300400 33006KT P6SM BKN100=



000
FTUS42 KCAE 290800 AAB
TAFAGS
TAF AMD
KAGS 290831Z 2909/3006 VRB03KT P6SM SCT060 BKN250
      TEMPO 2910/2912 3SM BR
     FM291400 24009KT P6SM SCT040 BKN200
     FM292100 25012KT P6SM VCSH BKN035
     FM300400 33006KT P6SM BKN100=



000
FTUS42 KCAE 290800 AAB
TAFDNL
TAF AMD
KDNL 290831Z 2909/3006 23004KT P6SM SCT060 BKN250
     FM291400 24009KT P6SM SCT040 BKN200
     FM292100 25012KT P6SM VCSH BKN035
     FM300400 33006KT P6SM BKN100=



000
FTUS42 KCAE 290800 AAA
TAFCAE
TAF AMD
KCAE 290831Z 2909/3006 23004KT P6SM SCT070 BKN250
     FM291400 24009KT P6SM SCT040 BKN200
     FM292100 25012KT P6SM VCSH BKN035
     FM300400 33006KT P6SM BKN100=



000
FTUS42 KCAE 290700 AAA
TAFDNL
TAF AMD
KDNL 290746Z 2908/3006 23004KT P6SM SCT080 BKN250
     FM291400 24009KT P6SM SCT040 BKN200
     FM292100 25012KT P6SM VCSH BKN035
     FM300400 33006KT P6SM BKN100=



000
FTUS42 KCAE 290700 AAA
TAFAGS
TAF AMD
KAGS 290745Z 2908/3006 VRB03KT P6SM SCT080 BKN250
      TEMPO 2910/2912 3SM BR
     FM291400 24009KT P6SM SCT040 BKN200
     FM292100 25012KT P6SM VCSH BKN035
     FM300400 33006KT P6SM BKN100=



000
FTUS42 KCAE 290700 AAA
TAFOGB
TAF AMD
KOGB 290745Z 2908/3006 VRB03KT P6SM SCT080 BKN250
      TEMPO 2910/2912 4SM BR
     FM291400 24009KT P6SM SCT040 BKN200
     FM292100 25012KT P6SM VCSH BKN035
     FM300400 33006KT P6SM BKN100=



000
FTUS42 KCAE 290500
TAFDNL
TAF
KDNL 290520Z 2906/3006 23004KT P6SM SCT150 BKN250
     FM291400 24009KT P6SM SCT040 BKN200
     FM292100 25012KT P6SM VCSH BKN035
     FM300400 33006KT P6SM BKN100=



000
FTUS42 KCAE 290500
TAFAGS
TAF
KAGS 290520Z 2906/3006 VRB03KT P6SM SCT150 BKN250
      TEMPO 2908/2912 1 1/2SM BR
     FM291400 24009KT P6SM SCT040 BKN200
     FM292100 25012KT P6SM VCSH BKN035
     FM300400 33006KT P6SM BKN100=



000
FTUS42 KCAE 290500
TAFCUB
TAF
KCUB 290520Z 2906/3006 VRB03KT P6SM SCT150 BKN250
     FM291400 24007KT P6SM SCT040 BKN200
     FM292100 25010KT P6SM VCSH BKN035
     FM300400 33006KT P6SM BKN100=



000
FTUS42 KCAE 290500
TAFCAE
TAF
KCAE 290520Z 2906/3006 23004KT P6SM SCT150 BKN250
     FM291400 24009KT P6SM SCT040 BKN200
     FM292100 25012KT P6SM VCSH BKN035
     FM300400 33006KT P6SM BKN100=



000
FTUS42 KCAE 290500
TAFOGB
TAF
KOGB 290520Z 2906/3006 VRB03KT P6SM SCT150 BKN250
      TEMPO 2909/2912 3SM BR
     FM291400 24009KT P6SM SCT040 BKN200
     FM292100 25012KT P6SM VCSH BKN035
     FM300400 33006KT P6SM BKN100=



000
FTUS42 KCAE 282300
TAFCAE
TAF
KCAE 282333Z 2900/2924 23004KT P6SM SCT150 BKN250
     FM291400 24009KT P6SM SCT040 BKN200
     FM292100 25012KT P6SM VCSH BKN035=



000
FTUS42 KCAE 282300
TAFDNL
TAF
KDNL 282333Z 2900/2924 23004KT P6SM SCT150 BKN250
     FM291400 24009KT P6SM SCT040 BKN200
     FM292100 25012KT P6SM VCSH BKN035=



000
FTUS42 KCAE 282300
TAFOGB
TAF
KOGB 282333Z 2900/2924 VRB03KT P6SM SCT150 BKN250
      TEMPO 2909/2912 3SM BR
     FM291400 24009KT P6SM SCT040 BKN200
     FM292100 25012KT P6SM VCSH BKN035=



000
FTUS42 KCAE 282300
TAFAGS
TAF
KAGS 282333Z 2900/2924 VRB03KT P6SM SCT150 BKN250
      TEMPO 2908/2912 1 1/2SM BR
     FM291400 24009KT P6SM SCT040 BKN200
     FM292100 25012KT P6SM VCSH BKN035=



000
FTUS42 KCAE 282300
TAFCUB
TAF
KCUB 282333Z 2900/2924 VRB03KT P6SM SCT150 BKN250
     FM291400 24007KT P6SM SCT040 BKN200
     FM292100 25010KT P6SM VCSH BKN035=



000
FTUS42 KCAE 281900 AAA
TAFDNL
TAF AMD
KDNL 281914Z 2819/2918 21010G15KT P6SM FEW060
     FM290100 21003KT P6SM SCT200
     FM291400 22008KT P6SM SCT025 BKN150=



000
FTUS42 KCAE 281900 AAA
TAFAGS
TAF AMD
KAGS 281914Z 2819/2918 21010G15KT P6SM FEW060
     FM290100 VRB03KT P6SM SKC
     FM290800 00000KT 2SM BR BKN002
     FM291400 24006KT P6SM SCT020 BKN150=



000
FTUS42 KCAE 281900 AAA
TAFCUB
TAF AMD
KCUB 281914Z 2819/2918 22009KT P6SM SKC
     FM290100 22003KT P6SM SCT200
     FM291500 25008KT P6SM SCT030 BKN200=



000
FTUS42 KCAE 281900 AAA
TAFCAE
TAF AMD
KCAE 281914Z 2819/2918 23010G15KT P6SM FEW060
     FM282300 VRB03KT P6SM SCT200
     FM291500 24009KT P6SM SCT030 BKN200=



000
FTUS42 KCAE 281900 AAA
TAFOGB
TAF AMD
KOGB 281914Z 2819/2918 22010G15KT P6SM SKC
     FM290100 VRB03KT P6SM SCT200
     FM290800 VRB03KT 5SM BR SCT009
     FM291400 24007KT P6SM SCT025 BKN200=



000
FTUS42 KCAE 281700
TAFCAE
TAF
KCAE 281720Z 2818/2918 22007KT P6SM FEW050
     FM282300 VRB03KT P6SM SCT200
     FM291500 24009KT P6SM SCT030 BKN200=



000
FTUS42 KCAE 281700
TAFCUB
TAF
KCUB 281720Z 2818/2918 22005KT P6SM FEW050
     FM290100 22003KT P6SM SCT200
     FM291500 25008KT P6SM SCT030 BKN200=



000
FTUS42 KCAE 281700
TAFOGB
TAF
KOGB 281720Z 2818/2918 21006KT P6SM FEW050
     FM290100 VRB03KT P6SM SCT200
     FM290800 VRB03KT 5SM BR SCT009
     FM291400 24007KT P6SM SCT025 BKN200=



000
FTUS42 KCAE 281700
TAFDNL
TAF
KDNL 281720Z 2818/2918 20006KT P6SM FEW050
     FM290100 21003KT P6SM SCT200
     FM291400 22008KT P6SM SCT025 BKN150=



000
FTUS42 KCAE 281700
TAFAGS
TAF
KAGS 281720Z 2818/2918 22006KT P6SM FEW050
     FM290100 VRB03KT P6SM SKC
     FM290800 00000KT 2SM BR BKN002
     FM291400 24006KT P6SM SCT020 BKN150=



000
FTUS42 KCAE 281400 AAA
TAFDNL
TAF AMD
KDNL 281413Z 2814/2912 21006KT P6SM SKC
     FM281800 22009KT P6SM FEW050
     FM290100 22003KT P6SM SCT200=



000
FTUS42 KCAE 281400 AAA
TAFOGB
TAF AMD
KOGB 281412Z 2814/2912 21005KT P6SM SKC
     FM281800 22010KT P6SM FEW050
     FM290100 VRB03KT P6SM SCT200
     FM290800 VRB03KT 5SM BR SCT009=



000
FTUS42 KCAE 281400 AAB
TAFCUB
TAF AMD
KCUB 281410Z 2814/2912 VRB03KT P6SM SKC
     FM281800 22007KT P6SM FEW050
     FM290100 22003KT P6SM SCT200=



000
FTUS42 KCAE 281400 AAA
TAFCAE
TAF AMD
KCAE 281409Z 2814/2912 VRB03KT P6SM SKC
      TEMPO 2814/2815 5SM BR
     FM281800 22009KT P6SM FEW050
     FM282300 VRB03KT P6SM SCT200=



000
FTUS42 KCAE 281200 AAA
TAFCUB
TAF AMD
KCUB 281226Z 2812/2912 00000KT 1SM BR VV002
      TEMPO 2813/2814 3SM BR BKN002
     FM281400 VRB03KT P6SM SKC
     FM281800 22007KT P6SM FEW050
     FM290100 22003KT P6SM SCT035=



000
FTUS42 KCAE 281100
TAFDNL
TAF
KDNL 281123Z 2812/2912 00000KT 4SM BR SKC
      TEMPO 2812/2813 1SM BR BKN002
     FM281400 21005KT P6SM SKC
     FM281800 22009KT P6SM FEW050
     FM290100 22003KT P6SM SCT035=



000
FTUS42 KCAE 281100
TAFOGB
TAF
KOGB 281123Z 2812/2912 00000KT 1/2SM FG VV002
     FM281400 21005KT P6SM SKC
     FM281800 22010KT P6SM FEW050
     FM290100 VRB03KT P6SM SCT025=



000
FTUS42 KCAE 281100
TAFCUB
TAF
KCUB 281123Z 2812/2912 00000KT 5SM BR SKC
      TEMPO 2812/2813 3SM BR BKN002
     FM281400 VRB03KT P6SM SKC
     FM281800 22007KT P6SM FEW050
     FM290100 22003KT P6SM SCT035=



000
FTUS42 KCAE 281100
TAFCAE
TAF
KCAE 281123Z 2812/2912 00000KT 1/2SM FG VV001
      TEMPO 2812/2813 3SM BR
     FM281400 21005KT P6SM SKC
     FM281800 22010KT P6SM FEW050=



000
FTUS42 KCAE 281100
TAFAGS
TAF
KAGS 281123Z 2812/2912 00000KT 1/2SM FG VV001
     FM281430 VRB03KT P6SM SKC
     FM281800 22010KT P6SM FEW050
     FM290100 VRB03KT P6SM SCT025=



000
FTUS42 KCAE 281100 AAB
TAFCAE
TAF AMD
KCAE 281115Z 2811/2906 00000KT 1/2SM FG VV001
      TEMPO 2811/2813 3SM BR
     FM281400 21005KT P6SM SKC
     FM281800 22010KT P6SM SKC=



000
FTUS42 KCAE 281000 AAB
TAFDNL
TAF AMD
KDNL 281004Z 2810/2906 00000KT 5SM BR SKC
      TEMPO 2810/2812 2SM BR
     FM281400 21005KT P6SM SKC
     FM281800 22009KT P6SM FEW050=



000
FTUS42 KCAE 280800 AAA
TAFCAE
TAF AMD
KCAE 280830Z 2809/2906 00000KT P6SM SKC
      TEMPO 2809/2812 4SM BR
     FM281400 21005KT P6SM SKC
     FM281800 22010KT P6SM SKC=



000
FTUS42 KCAE 280800 AAA
TAFAGS
TAF AMD
KAGS 280830Z 2809/2906 00000KT 2SM BR SKC
      TEMPO 2809/2812 1/2SM FG VV002
     FM281400 VRB03KT P6SM SKC
     FM281800 22010KT P6SM FEW050=



000
FTUS42 KCAE 280800 AAA
TAFOGB
TAF AMD
KOGB 280830Z 2809/2906 00000KT 2SM BR BKN003
      TEMPO 2809/2812 1/2SM FG VV002
     FM281400 21005KT P6SM SKC
     FM281800 22010KT P6SM FEW050=



000
FTUS42 KCAE 280800 AAA
TAFCUB
TAF AMD
KCUB 280830Z 2809/2906 00000KT P6SM SKC
      TEMPO 2809/2812 4SM BR
     FM281400 VRB03KT P6SM SKC
     FM281800 22007KT P6SM SKC=



000
FTUS42 KCAE 280800 AAA
TAFDNL
TAF AMD
KDNL 280830Z 2809/2906 00000KT P6SM SKC
      TEMPO 2809/2812 4SM BR
     FM281400 21005KT P6SM SKC
     FM281800 22009KT P6SM FEW050=



000
FTUS42 KCAE 280500
TAFCAE
TAF
KCAE 280522Z 2806/2906 VRB03KT P6SM SKC
      TEMPO 2809/2812 4SM BR
     FM281400 21005KT P6SM SKC
     FM281800 22010KT P6SM SKC=



000
FTUS42 KCAE 280500
TAFAGS
TAF
KAGS 280522Z 2806/2906 VRB03KT P6SM SKC
     FM280700 00000KT 3SM BR SKC
      TEMPO 2808/2812 1/2SM FG VV002
     FM281400 VRB03KT P6SM SKC
     FM281800 22010KT P6SM FEW050=



000
FTUS42 KCAE 280500
TAFDNL
TAF
KDNL 280522Z 2806/2906 VRB03KT P6SM SKC
      TEMPO 2810/2812 4SM BR
     FM281400 21005KT P6SM SKC
     FM281800 22009KT P6SM FEW050=



000
FTUS42 KCAE 280500
TAFOGB
TAF
KOGB 280522Z 2806/2906 00000KT 2SM BR BKN003
      TEMPO 2810/2812 1/2SM FG VV002
     FM281400 21005KT P6SM SKC
     FM281800 22010KT P6SM FEW050=



000
FTUS42 KCAE 280500
TAFCUB
TAF
KCUB 280522Z 2806/2906 VRB03KT P6SM SKC
      TEMPO 2809/2812 4SM BR
     FM281400 VRB03KT P6SM SKC
     FM281800 22007KT P6SM SKC=



000
FTUS42 KCAE 280400 AAB
TAFOGB
TAF AMD
KOGB 280440Z 2805/2824 00000KT P6SM BKN004
     FM280900 00000KT 3SM BR BKN004
      TEMPO 2810/2812 1SM BR BKN002
     FM281400 21005KT P6SM SKC
     FM281800 22010KT P6SM FEW050=



000
FTUS42 KCAE 280400 AAB
TAFOGB
TAF AMD
KOGB 280440Z 2805/2824 00000KT P6SM BKN004
     FM280900 00000KT 3SM BR BKN004
      TEMPO 2810/2812 1SM BR BKN002
     FM281400 21005KT P6SM SKC
     FM281800 22010KT P6SM FEW050=



000
FTUS42 KCAE 280400 AAA
TAFOGB
TAF AMD
KOGB 280436Z 2805/2824 00000KT P6SM SCT004
     FM280900 00000KT 3SM BR SCT004
      TEMPO 2810/2812 1SM BR BKN004
     FM281400 21005KT P6SM SKC
     FM281800 22010KT P6SM FEW050=



000
FTUS42 KCAE 280400 AAA
TAFOGB
TAF AMD
KOGB 280436Z 2805/2824 00000KT P6SM SCT004
     FM280900 00000KT 3SM BR SCT004
      TEMPO 2810/2812 1SM BR BKN004
     FM281400 21005KT P6SM SKC
     FM281800 22010KT P6SM FEW050=



000
FTUS42 KCAE 272300
TAFOGB
TAF
KOGB 272320Z 2800/2824 VRB03KT P6SM SKC
     FM280900 00000KT 3SM BR SKC
      TEMPO 2810/2812 1SM BR SCT005
     FM281400 21005KT P6SM SKC
     FM281800 22010KT P6SM FEW050=



000
FTUS42 KCAE 272300
TAFAGS
TAF
KAGS 272320Z 2800/2824 VRB03KT P6SM SKC
     FM280700 00000KT 3SM BR SKC
      TEMPO 2808/2812 1/2SM FG SCT005
     FM281400 VRB03KT P6SM SKC
     FM281800 22010KT P6SM FEW050=



000
FTUS42 KCAE 272300
TAFCUB
TAF
KCUB 272320Z 2800/2824 VRB03KT P6SM SKC
      TEMPO 2809/2812 4SM BR
     FM281400 VRB03KT P6SM SKC
     FM281800 22007KT P6SM SKC=



000
FTUS42 KCAE 272300
TAFCAE
TAF
KCAE 272320Z 2800/2824 VRB03KT P6SM SKC
      TEMPO 2809/2812 4SM BR
     FM281400 21005KT P6SM SKC
     FM281800 22010KT P6SM SKC=



000
FTUS42 KCAE 272300
TAFDNL
TAF
KDNL 272320Z 2800/2824 VRB03KT P6SM SKC
      TEMPO 2810/2812 4SM BR
     FM281400 21005KT P6SM SKC
     FM281800 22009KT P6SM FEW050=



000
FTUS42 KCAE 271700
TAFAGS
TAF
KAGS 271723Z 2718/2818 12004KT P6SM SKC
     FM280900 00000KT 4SM BR SKC
      TEMPO 2810/2813 1SM BR SCT005
     FM281500 VRB02KT P6SM SCT005=



000
FTUS42 KCAE 271700
TAFDNL
TAF
KDNL 271723Z 2718/2818 VRB03KT P6SM SKC
      TEMPO 2809/2813 4SM BR
     FM281500 VRB03KT P6SM FEW005=



000
FTUS42 KCAE 271700
TAFOGB
TAF
KOGB 271723Z 2718/2818 12004KT P6SM SKC
     FM280900 00000KT 4SM BR SKC
      TEMPO 2810/2813 1 1/2SM BR SCT005
     FM281500 21004KT P6SM SCT005=



000
FTUS42 KCAE 271700
TAFCAE
TAF
KCAE 271723Z 2718/2818 VRB03KT P6SM SKC
      TEMPO 2809/2813 4SM BR
     FM281500 VRB03KT P6SM SKC=



000
FTUS42 KCAE 271700
TAFCUB
TAF
KCUB 271723Z 2718/2818 VRB03KT P6SM SKC
      TEMPO 2809/2813 4SM BR
     FM281500 VRB03KT P6SM SKC=



    US Dept of Commerce
    National Oceanic and Atmospheric Administration
    National Weather Service
    1325 East West Highway
    Silver Spring, MD 20910
    Page Author: NWS Internet Services Team
Disclaimer
Information Quality
Credits
Glossary
Privacy Policy
Freedom of Information Act (FOIA)
About Us
Career Opportunities